sensor_id;sensor_type;location;lat;lon;timestamp;pressure;altitude;pressure_sealevel;temperature;humidity
43814;BME280;29669;55.706;37.656;2024-02-16T05:50:57;101693.09;;;-8.63;82.19
43814;BME280;29669;55.706;37.656;2024-02-16T05:53:27;101703.19;;;-8.24;82.40
43814;BME280;29669;55.706;37.656;2024-02-16T05:55:57;101696.50;;;-7.86;82.71
43814;BME280;29669;55.706;37.656;2024-02-16T05:58:26;101689.69;;;-7.55;82.50
43814;BME280;29669;55.706;37.656;2024-02-16T06:00:53;101698.88;;;-7.22;82.18
43814;BME280;29669;55.706;37.656;2024-02-16T06:03:22;101693.72;;;-6.98;81.78
43814;BME280;29669;55.706;37.656;2024-02-16T06:05:49;101697.81;;;-6.72;81.29
43814;BME280;29669;55.706;37.656;2024-02-16T06:08:17;101698.56;;;-6.53;80.59
43814;BME280;29669;55.706;37.656;2024-02-16T06:10:46;101692.53;;;-6.35;80.21
43814;BME280;29669;55.706;37.656;2024-02-16T06:13:21;101689.91;;;-6.22;79.74
43814;BME280;29669;55.706;37.656;2024-02-16T06:15:49;101685.63;;;-6.12;79.44
43814;BME280;29669;55.706;37.656;2024-02-16T06:18:17;101692.31;;;-6.02;79.24
43814;BME280;29669;55.706;37.656;2024-02-16T06:20:44;101699.78;;;-5.92;79.06
43814;BME280;29669;55.706;37.656;2024-02-16T06:23:12;101695.47;;;-5.82;78.70
43814;BME280;29669;55.706;37.656;2024-02-16T06:25:40;101702.13;;;-5.72;78.64
43814;BME280;29669;55.706;37.656;2024-02-16T06:28:09;101710.47;;;-5.62;78.17
43814;BME280;29669;55.706;37.656;2024-02-16T06:30:37;101707.91;;;-5.59;78.02
43814;BME280;29669;55.706;37.656;2024-02-16T06:33:04;101703.63;;;-5.54;78.22
43814;BME280;29669;55.706;37.656;2024-02-16T06:35:32;101701.84;;;-5.46;78.01
43814;BME280;29669;55.706;37.656;2024-02-16T06:38:00;101697.59;;;-5.41;77.84
43814;BME280;29669;55.706;37.656;2024-02-16T06:40:27;101689.06;;;-5.33;77.76
43814;BME280;29669;55.706;37.656;2024-02-16T06:42:55;101700.81;;;-5.24;77.75
43814;BME280;29669;55.706;37.656;2024-02-16T06:45:23;101695.66;;;-5.20;77.51
43814;BME280;29669;55.706;37.656;2024-02-16T06:47:50;101700.63;;;-5.11;77.53
43814;BME280;29669;55.706;37.656;2024-02-16T06:50:18;101703.00;;;-4.99;77.36
43814;BME280;29669;55.706;37.656;2024-02-16T06:52:46;101703.75;;;-4.89;77.26
43814;BME280;29669;55.706;37.656;2024-02-16T06:55:14;101699.50;;;-4.87;76.92
43814;BME280;29669;55.706;37.656;2024-02-16T06:57:41;101684.25;;;-4.84;76.98
43814;BME280;29669;55.706;37.656;2024-02-16T07:00:11;101688.41;;;-4.79;77.05
43814;BME280;29669;55.706;37.656;2024-02-16T07:02:40;101685.19;;;-4.91;76.86
43814;BME280;29669;55.706;37.656;2024-02-16T07:05:08;101687.72;;;-4.91;77.03
43814;BME280;29669;55.706;37.656;2024-02-16T07:07:36;101693.53;;;-4.83;77.26
43814;BME280;29669;55.706;37.656;2024-02-16T07:10:04;101696.16;;;-4.89;77.15
43814;BME280;29669;55.706;37.656;2024-02-16T07:12:32;101694.38;;;-4.84;77.44
43814;BME280;29669;55.706;37.656;2024-02-16T07:15:01;101698.47;;;-4.74;77.15
43814;BME280;29669;55.706;37.656;2024-02-16T07:17:30;101700.97;;;-4.69;77.11
43814;BME280;29669;55.706;37.656;2024-02-16T07:19:58;101685.78;;;-4.72;77.00
43814;BME280;29669;55.706;37.656;2024-02-16T07:22:25;101684.88;;;-4.67;77.24
43814;BME280;29669;55.706;37.656;2024-02-16T07:24:53;101686.38;;;-4.54;77.17
43814;BME280;29669;55.706;37.656;2024-02-16T07:27:20;101680.38;;;-4.48;76.97
43814;BME280;29669;55.706;37.656;2024-02-16T07:29:48;101681.94;;;-4.38;76.82
43814;BME280;29669;55.706;37.656;2024-02-16T07:32:16;101680.94;;;-4.28;76.66
43814;BME280;29669;55.706;37.656;2024-02-16T07:34:47;101680.84;;;-4.24;76.24
43814;BME280;29669;55.706;37.656;2024-02-16T07:37:15;101674.28;;;-4.34;76.16
43814;BME280;29669;55.706;37.656;2024-02-16T07:39:45;101675.94;;;-4.33;76.23
43814;BME280;29669;55.706;37.656;2024-02-16T07:42:13;101688.56;;;-4.30;76.14
43814;BME280;29669;55.706;37.656;2024-02-16T07:47:09;101684.47;;;-4.38;nan
43814;BME280;29669;55.706;37.656;2024-02-16T07:49:38;101673.53;;;-4.42;nan
43814;BME280;29669;55.706;37.656;2024-02-16T07:52:07;101689.59;;;-4.41;nan
43814;BME280;29669;55.706;37.656;2024-02-16T07:54:34;101687.84;;;-4.38;nan
43814;BME280;29669;55.706;37.656;2024-02-16T07:57:02;101681.84;;;-4.32;nan
43814;BME280;29669;55.706;37.656;2024-02-16T07:59:31;101687.66;;;-4.27;nan
43814;BME280;29669;55.706;37.656;2024-02-16T08:01:59;101690.13;;;-4.21;nan
43814;BME280;29669;55.706;37.656;2024-02-16T08:04:26;101688.44;;;-4.21;nan
43814;BME280;29669;55.706;37.656;2024-02-16T08:06:54;101690.19;;;-4.26;nan
43814;BME280;29669;55.706;37.656;2024-02-16T08:14:16;101713.78;;;-4.21;nan
43814;BME280;29669;55.706;37.656;2024-02-16T08:16:44;101712.03;;;-4.17;nan
43814;BME280;29669;55.706;37.656;2024-02-16T08:21:41;101711.97;;;-4.14;nan
43814;BME280;29669;55.706;37.656;2024-02-16T08:24:09;101714.53;;;-4.16;nan
43814;BME280;29669;55.706;37.656;2024-02-16T08:26:36;101722.13;;;-4.14;nan
43814;BME280;29669;55.706;37.656;2024-02-16T08:29:04;101722.06;;;-4.10;nan
43814;BME280;29669;55.706;37.656;2024-02-16T08:31:31;101727.03;;;-4.04;nan
43814;BME280;29669;55.706;37.656;2024-02-16T08:33:59;101710.88;;;-3.98;nan
43814;BME280;29669;55.706;37.656;2024-02-16T08:36:28;101705.72;;;-3.94;nan
43814;BME280;29669;55.706;37.656;2024-02-16T08:38:57;101703.88;;;-3.84;nan
43814;BME280;29669;55.706;37.656;2024-02-16T08:41:25;101697.75;;;-3.72;nan
43814;BME280;29669;55.706;37.656;2024-02-16T08:43:53;101691.72;;;-3.64;nan
43814;BME280;29669;55.706;37.656;2024-02-16T08:46:20;101701.75;;;-3.59;nan
43814;BME280;29669;55.706;37.656;2024-02-16T08:48:48;101702.56;;;-3.57;nan
43814;BME280;29669;55.706;37.656;2024-02-16T08:51:17;101696.66;;;-3.56;nan
43814;BME280;29669;55.706;37.656;2024-02-16T08:53:45;101698.38;;;-3.58;nan
43814;BME280;29669;55.706;37.656;2024-02-16T08:56:12;101711.78;;;-3.52;nan
43814;BME280;29669;55.706;37.656;2024-02-16T08:58:40;101714.31;;;-3.50;nan
43814;BME280;29669;55.706;37.656;2024-02-16T09:01:08;101710.03;;;-3.50;nan
43814;BME280;29669;55.706;37.656;2024-02-16T09:03:35;101718.50;;;-3.49;nan
43814;BME280;29669;55.706;37.656;2024-02-16T09:06:06;101713.41;;;-3.46;nan
43814;BME280;29669;55.706;37.656;2024-02-16T09:08:34;101709.97;;;-3.45;nan
43814;BME280;29669;55.706;37.656;2024-02-16T09:11:02;101707.50;;;-3.48;nan
43814;BME280;29669;55.706;37.656;2024-02-16T09:13:34;101715.03;;;-3.44;nan
43814;BME280;29669;55.706;37.656;2024-02-16T09:16:07;101713.25;;;-3.40;nan
43814;BME280;29669;55.706;37.656;2024-02-16T09:18:35;101714.88;;;-3.36;nan
43814;BME280;29669;55.706;37.656;2024-02-16T09:21:05;101714.84;;;-3.35;nan
43814;BME280;29669;55.706;37.656;2024-02-16T09:23:34;101705.44;;;-3.28;nan
43814;BME280;29669;55.706;37.656;2024-02-16T09:26:02;101704.47;;;-3.23;nan
43814;BME280;29669;55.706;37.656;2024-02-16T09:28:29;101704.44;;;-3.21;nan
43814;BME280;29669;55.706;37.656;2024-02-16T09:30:58;101709.41;;;-3.15;nan
43814;BME280;29669;55.706;37.656;2024-02-16T09:33:25;101706.06;;;-3.17;nan
43814;BME280;29669;55.706;37.656;2024-02-16T09:35:55;101701.78;;;-3.15;nan
43814;BME280;29669;55.706;37.656;2024-02-16T09:38:22;101695.81;;;-3.13;nan
43814;BME280;29669;55.706;37.656;2024-02-16T09:40:50;101683.91;;;-3.09;nan
43814;BME280;29669;55.706;37.656;2024-02-16T09:43:28;101683.81;;;-3.06;nan
43814;BME280;29669;55.706;37.656;2024-02-16T09:45:57;101686.25;;;-3.00;nan
43814;BME280;29669;55.706;37.656;2024-02-16T09:50:55;101686.63;;;-2.77;nan
43814;BME280;29669;55.706;37.656;2024-02-16T09:55:52;101684.16;;;-2.43;nan
43814;BME280;29669;55.706;37.656;2024-02-16T09:58:21;101662.72;;;-2.32;nan
43814;BME280;29669;55.706;37.656;2024-02-16T10:00:52;101645.50;;;-2.21;nan
43814;BME280;29669;55.706;37.656;2024-02-16T10:03:31;101634.38;;;-2.17;nan
43814;BME280;29669;55.706;37.656;2024-02-16T10:06:10;101635.81;;;-2.07;nan
43814;BME280;29669;55.706;37.656;2024-02-16T10:08:51;101646.63;;;-1.97;nan
43814;BME280;29669;55.706;37.656;2024-02-16T10:11:21;101642.28;;;-1.94;nan
43814;BME280;29669;55.706;37.656;2024-02-16T10:14:09;101635.50;;;-1.95;nan
43814;BME280;29669;55.706;37.656;2024-02-16T10:16:37;101641.47;;;-1.96;nan
43814;BME280;29669;55.706;37.656;2024-02-16T10:24:12;101646.19;;;-2.16;nan
43814;BME280;29669;55.706;37.656;2024-02-16T10:26:42;101647.41;;;-2.30;nan
43814;BME280;29669;55.706;37.656;2024-02-16T10:29:10;101643.53;;;-2.45;nan
43814;BME280;29669;55.706;37.656;2024-02-16T10:34:06;101653.66;;;-2.43;nan
43814;BME280;29669;55.706;37.656;2024-02-16T10:36:36;101651.84;;;-2.38;nan
43814;BME280;29669;55.706;37.656;2024-02-16T10:41:38;101637.56;;;-2.42;nan
43814;BME280;29669;55.706;37.656;2024-02-16T10:44:06;101645.91;;;-2.37;nan
43814;BME280;29669;55.706;37.656;2024-02-16T10:46:34;101649.25;;;-2.35;nan
43814;BME280;29669;55.706;37.656;2024-02-16T10:49:03;101648.31;;;-2.33;nan
43814;BME280;29669;55.706;37.656;2024-02-16T10:51:47;101648.25;;;-2.30;nan
43814;BME280;29669;55.706;37.656;2024-02-16T10:54:18;101645.63;;;-2.27;nan
43814;BME280;29669;55.706;37.656;2024-02-16T10:56:47;101649.00;;;-2.26;nan
43814;BME280;29669;55.706;37.656;2024-02-16T10:59:16;101649.78;;;-2.23;nan
43814;BME280;29669;55.706;37.656;2024-02-16T11:01:44;101653.16;;;-2.22;nan
43814;BME280;29669;55.706;37.656;2024-02-16T11:07:01;101656.38;;;-2.16;nan
43814;BME280;29669;55.706;37.656;2024-02-16T11:09:35;101652.06;;;-2.12;nan
43814;BME280;29669;55.706;37.656;2024-02-16T11:12:05;101664.75;;;-2.11;nan
43814;BME280;29669;55.706;37.656;2024-02-16T11:14:36;101651.38;;;-2.19;nan
43814;BME280;29669;55.706;37.656;2024-02-16T11:17:09;101652.34;;;-2.24;nan
43814;BME280;29669;55.706;37.656;2024-02-16T11:19:44;101647.19;;;-2.21;nan
43814;BME280;29669;55.706;37.656;2024-02-16T11:24:49;101647.81;;;-2.12;nan
43814;BME280;29669;55.706;37.656;2024-02-16T11:27:18;101646.06;;;-2.10;nan
43814;BME280;29669;55.706;37.656;2024-02-16T11:32:18;101634.75;;;-2.32;nan
43814;BME280;29669;55.706;37.656;2024-02-16T11:37:15;101648.69;;;-2.13;nan
43814;BME280;29669;55.706;37.656;2024-02-16T11:39:43;101632.41;;;-2.06;nan
43814;BME280;29669;55.706;37.656;2024-02-16T11:42:19;101630.41;;;-1.95;nan
43814;BME280;29669;55.706;37.656;2024-02-16T11:44:54;101640.59;;;-1.95;nan
43814;BME280;29669;55.706;37.656;2024-02-16T11:47:24;101637.34;;;-2.00;nan
43814;BME280;29669;55.706;37.656;2024-02-16T11:50:14;101634.69;;;-1.97;nan
43814;BME280;29669;55.706;37.656;2024-02-16T11:52:46;101636.44;;;-1.97;nan
43814;BME280;29669;55.706;37.656;2024-02-16T11:55:14;101636.03;;;-2.16;nan
43814;BME280;29669;55.706;37.656;2024-02-16T11:57:43;101627.69;;;-2.21;nan
43814;BME280;29669;55.706;37.656;2024-02-16T12:00:12;101621.47;;;-2.09;nan
43814;BME280;29669;55.706;37.656;2024-02-16T12:02:43;101629.59;;;-1.97;nan
43814;BME280;29669;55.706;37.656;2024-02-16T12:05:13;101628.66;;;-1.93;nan
43814;BME280;29669;55.706;37.656;2024-02-16T12:07:41;101632.16;;;-1.97;nan
43814;BME280;29669;55.706;37.656;2024-02-16T12:10:10;101631.34;;;-1.99;nan
43814;BME280;29669;55.706;37.656;2024-02-16T12:12:38;101645.81;;;-2.01;nan
43814;BME280;29669;55.706;37.656;2024-02-16T12:15:06;101645.16;;;-2.07;nan
43814;BME280;29669;55.706;37.656;2024-02-16T12:17:35;101647.59;;;-2.03;nan
43814;BME280;29669;55.706;37.656;2024-02-16T12:20:03;101655.44;;;-2.12;nan
43814;BME280;29669;55.706;37.656;2024-02-16T12:22:38;101646.38;;;-2.22;nan
43814;BME280;29669;55.706;37.656;2024-02-16T12:25:06;101651.47;;;-2.22;nan
43814;BME280;29669;55.706;37.656;2024-02-16T12:27:33;101649.00;;;-2.26;nan
43814;BME280;29669;55.706;37.656;2024-02-16T12:30:01;101644.69;;;-2.23;nan
43814;BME280;29669;55.706;37.656;2024-02-16T12:32:30;101654.94;;;-2.26;nan
43814;BME280;29669;55.706;37.656;2024-02-16T12:34:57;101643.84;;;-2.23;nan
43814;BME280;29669;55.706;37.656;2024-02-16T12:39:52;101646.38;;;-2.22;nan
43814;BME280;29669;55.706;37.656;2024-02-16T12:42:20;101649.72;;;-2.20;nan
43814;BME280;29669;55.706;37.656;2024-02-16T12:44:48;101650.47;;;-2.16;nan
43814;BME280;29669;55.706;37.656;2024-02-16T12:47:15;101657.97;;;-2.12;nan
43814;BME280;29669;55.706;37.656;2024-02-16T12:49:43;101659.66;;;-2.11;nan
43814;BME280;29669;55.706;37.656;2024-02-16T12:52:19;101660.53;;;-2.12;nan
43814;BME280;29669;55.706;37.656;2024-02-16T12:54:47;101665.69;;;-2.15;nan
43814;BME280;29669;55.706;37.656;2024-02-16T12:57:15;101664.91;;;-2.17;nan
43814;BME280;29669;55.706;37.656;2024-02-16T12:59:42;101664.97;;;-2.20;nan
43814;BME280;29669;55.706;37.656;2024-02-16T13:02:10;101669.25;;;-2.22;nan
43814;BME280;29669;55.706;37.656;2024-02-16T13:04:38;101669.28;;;-2.23;nan
43814;BME280;29669;55.706;37.656;2024-02-16T13:07:05;101668.50;;;-2.25;nan
43814;BME280;29669;55.706;37.656;2024-02-16T13:09:33;101676.19;;;-2.28;nan
43814;BME280;29669;55.706;37.656;2024-02-16T13:12:01;101676.31;;;-2.34;nan
43814;BME280;29669;55.706;37.656;2024-02-16T13:16:56;101675.72;;;-2.45;nan
43814;BME280;29669;55.706;37.656;2024-02-16T13:19:23;101669.97;;;-2.52;nan
43814;BME280;29669;55.706;37.656;2024-02-16T13:24:20;101678.88;;;-2.71;nan
43814;BME280;29669;55.706;37.656;2024-02-16T13:26:47;101679.06;;;-2.81;nan
43814;BME280;29669;55.706;37.656;2024-02-16T13:29:15;101671.69;;;-2.92;nan
43814;BME280;29669;55.706;37.656;2024-02-16T13:31:43;101680.97;;;-2.90;nan
43814;BME280;29669;55.706;37.656;2024-02-16T13:34:10;101680.09;;;-2.89;nan
43814;BME280;29669;55.706;37.656;2024-02-16T13:36:38;101680.19;;;-2.95;nan
43814;BME280;29669;55.706;37.656;2024-02-16T13:39:06;101682.81;;;-2.98;nan
43814;BME280;29669;55.706;37.656;2024-02-16T13:41:34;101675.22;;;-2.99;nan
43814;BME280;29669;55.706;37.656;2024-02-16T13:44:02;101672.56;;;-2.95;nan
43814;BME280;29669;55.706;37.656;2024-02-16T13:46:30;101673.47;;;-2.97;nan
43814;BME280;29669;55.706;37.656;2024-02-16T13:48:57;101676.91;;;-2.98;nan
43814;BME280;29669;55.706;37.656;2024-02-16T13:51:26;101673.47;;;-2.97;nan
43814;BME280;29669;55.706;37.656;2024-02-16T13:53:54;101665.06;;;-2.99;nan
43814;BME280;29669;55.706;37.656;2024-02-16T13:56:22;101665.06;;;-2.99;nan
43814;BME280;29669;55.706;37.656;2024-02-16T13:58:49;101671.88;;;-3.01;nan
43814;BME280;29669;55.706;37.656;2024-02-16T14:01:17;101673.63;;;-3.03;nan
43814;BME280;29669;55.706;37.656;2024-02-16T14:03:44;101680.47;;;-3.07;nan
43814;BME280;29669;55.706;37.656;2024-02-16T14:06:12;101682.22;;;-3.10;nan
43814;BME280;29669;55.706;37.656;2024-02-16T14:08:40;101677.25;;;-3.15;nan
43814;BME280;29669;55.706;37.656;2024-02-16T14:11:08;101670.63;;;-3.23;nan
43814;BME280;29669;55.706;37.656;2024-02-16T14:13:36;101681.63;;;-3.23;nan
43814;BME280;29669;55.706;37.656;2024-02-16T14:16:04;101680.84;;;-3.26;nan
43814;BME280;29669;55.706;37.656;2024-02-16T14:18:31;101671.66;;;-3.32;nan
43814;BME280;29669;55.706;37.656;2024-02-16T14:21:02;101676.81;;;-3.36;nan
43814;BME280;29669;55.706;37.656;2024-02-16T14:23:30;101669.38;;;-3.45;nan
43814;BME280;29669;55.706;37.656;2024-02-16T14:25:59;101670.44;;;-3.57;nan
43814;BME280;29669;55.706;37.656;2024-02-16T14:28:27;101668.13;;;-3.70;nan
43814;BME280;29669;55.706;37.656;2024-02-16T14:30:55;101664.78;;;-3.72;nan
43814;BME280;29669;55.706;37.656;2024-02-16T14:33:22;101670.13;;;-3.88;nan
43814;BME280;29669;55.706;37.656;2024-02-16T14:38:26;101670.34;;;-4.00;nan
43814;BME280;29669;55.706;37.656;2024-02-16T14:40:53;101670.34;;;-4.00;nan
43814;BME280;29669;55.706;37.656;2024-02-16T14:43:21;101661.84;;;-3.99;nan
43814;BME280;29669;55.706;37.656;2024-02-16T14:45:48;101661.06;;;-4.02;nan
43814;BME280;29669;55.706;37.656;2024-02-16T14:48:16;101667.97;;;-4.10;nan
43814;BME280;29669;55.706;37.656;2024-02-16T14:50:44;101665.41;;;-4.09;nan
43814;BME280;29669;55.706;37.656;2024-02-16T14:53:12;101662.97;;;-4.16;nan
43814;BME280;29669;55.706;37.656;2024-02-16T14:55:39;101666.41;;;-4.17;nan
43814;BME280;29669;55.706;37.656;2024-02-16T14:58:07;101663.03;;;-4.19;nan
43814;BME280;29669;55.706;37.656;2024-02-16T15:00:35;101663.00;;;-4.15;nan
43814;BME280;29669;55.706;37.656;2024-02-16T15:03:03;101667.16;;;-4.11;nan
43814;BME280;29669;55.706;37.656;2024-02-16T15:05:32;101664.56;;;-4.08;nan
43814;BME280;29669;55.706;37.656;2024-02-16T15:07:59;101664.72;;;-4.17;nan
43814;BME280;29669;55.706;37.656;2024-02-16T15:10:27;101674.03;;;-4.19;nan
43814;BME280;29669;55.706;37.656;2024-02-16T15:12:55;101664.81;;;-4.24;nan
43814;BME280;29669;55.706;37.656;2024-02-16T15:15:23;101654.72;;;-4.27;nan
43814;BME280;29669;55.706;37.656;2024-02-16T15:17:51;101672.44;;;-4.26;nan
43814;BME280;29669;55.706;37.656;2024-02-16T15:20:18;101658.22;;;-4.34;nan
43814;BME280;29669;55.706;37.656;2024-02-16T15:22:49;101663.25;;;-4.33;nan
43814;BME280;29669;55.706;37.656;2024-02-16T15:25:23;101664.03;;;-4.28;nan
43814;BME280;29669;55.706;37.656;2024-02-16T15:27:51;101665.75;;;-4.30;nan
43814;BME280;29669;55.706;37.656;2024-02-16T15:30:19;101667.34;;;-4.23;nan
43814;BME280;29669;55.706;37.656;2024-02-16T15:35:20;101672.25;;;-4.14;nan
43814;BME280;29669;55.706;37.656;2024-02-16T15:37:47;101674.75;;;-4.11;nan
43814;BME280;29669;55.706;37.656;2024-02-16T15:40:15;101672.22;;;-4.11;nan
43814;BME280;29669;55.706;37.656;2024-02-16T15:42:58;101668.88;;;-4.13;nan
43814;BME280;29669;55.706;37.656;2024-02-16T15:45:27;101673.91;;;-4.11;nan
43814;BME280;29669;55.706;37.656;2024-02-16T15:47:55;101670.75;;;-4.25;nan
43814;BME280;29669;55.706;37.656;2024-02-16T15:50:23;101669.16;;;-4.32;nan
43814;BME280;29669;55.706;37.656;2024-02-16T15:52:53;101675.97;;;-4.34;nan
43814;BME280;29669;55.706;37.656;2024-02-16T15:55:20;101664.16;;;-4.37;nan
43814;BME280;29669;55.706;37.656;2024-02-16T15:57:48;101664.03;;;-4.29;nan
43814;BME280;29669;55.706;37.656;2024-02-16T16:00:16;101676.63;;;-4.23;nan
43814;BME280;29669;55.706;37.656;2024-02-16T16:05:11;101661.47;;;-4.26;nan
43814;BME280;29669;55.706;37.656;2024-02-16T16:07:39;101673.19;;;-4.19;nan
43814;BME280;29669;55.706;37.656;2024-02-16T16:10:09;101671.47;;;-4.17;nan
43814;BME280;29669;55.706;37.656;2024-02-16T16:12:41;101677.38;;;-4.17;nan
43814;BME280;29669;55.706;37.656;2024-02-16T16:15:09;101673.25;;;-4.22;nan
43814;BME280;29669;55.706;37.656;2024-02-16T16:17:37;101682.47;;;-4.20;nan
43814;BME280;29669;55.706;37.656;2024-02-16T16:20:06;101677.41;;;-4.18;nan
43814;BME280;29669;55.706;37.656;2024-02-16T16:25:03;101682.53;;;-4.23;nan
43814;BME280;29669;55.706;37.656;2024-02-16T16:27:31;101684.31;;;-4.28;nan
43814;BME280;29669;55.706;37.656;2024-02-16T16:29:58;101688.59;;;-4.33;nan
43814;BME280;29669;55.706;37.656;2024-02-16T16:32:26;101678.56;;;-4.39;nan
43814;BME280;29669;55.706;37.656;2024-02-16T16:34:54;101689.56;;;-4.40;nan
43814;BME280;29669;55.706;37.656;2024-02-16T16:37:23;101684.41;;;-4.34;nan
43814;BME280;29669;55.706;37.656;2024-02-16T16:39:51;101686.84;;;-4.29;nan
43814;BME280;29669;55.706;37.656;2024-02-16T16:42:22;101689.59;;;-4.41;nan
43814;BME280;29669;55.706;37.656;2024-02-16T16:44:50;101691.25;;;-4.40;nan
43814;BME280;29669;55.706;37.656;2024-02-16T16:47:17;101691.22;;;-4.39;nan
43814;BME280;29669;55.706;37.656;2024-02-16T16:49:45;101692.03;;;-4.35;nan
43814;BME280;29669;55.706;37.656;2024-02-16T16:52:13;101697.91;;;-4.33;nan
43814;BME280;29669;55.706;37.656;2024-02-16T16:54:42;101696.25;;;-4.36;nan
43814;BME280;29669;55.706;37.656;2024-02-16T16:57:10;101690.38;;;-4.38;nan
43814;BME280;29669;55.706;37.656;2024-02-16T16:59:37;101695.63;;;-4.51;nan
43814;BME280;29669;55.706;37.656;2024-02-16T17:02:05;101691.53;;;-4.58;nan
43814;BME280;29669;55.706;37.656;2024-02-16T17:07:01;101694.91;;;-4.59;nan
43814;BME280;29669;55.706;37.656;2024-02-16T17:09:28;101694.09;;;-4.60;nan
43814;BME280;29669;55.706;37.656;2024-02-16T17:11:56;101698.22;;;-4.54;nan
43814;BME280;29669;55.706;37.656;2024-02-16T17:14:25;101694.88;;;-4.56;nan
43814;BME280;29669;55.706;37.656;2024-02-16T17:16:52;101695.69;;;-4.56;nan
43814;BME280;29669;55.706;37.656;2024-02-16T17:19:21;101681.28;;;-4.51;nan
43814;BME280;29669;55.706;37.656;2024-02-16T17:21:48;101687.13;;;-4.47;nan
43814;BME280;29669;55.706;37.656;2024-02-16T17:24:16;101680.44;;;-4.51;nan
43814;BME280;29669;55.706;37.656;2024-02-16T17:26:44;101672.00;;;-4.50;nan
43814;BME280;29669;55.706;37.656;2024-02-16T17:29:14;101683.75;;;-4.48;nan
43814;BME280;29669;55.706;37.656;2024-02-16T17:31:41;101681.22;;;-4.48;nan
43814;BME280;29669;55.706;37.656;2024-02-16T17:34:09;101683.72;;;-4.46;nan
43814;BME280;29669;55.706;37.656;2024-02-16T17:36:37;101686.25;;;-4.46;nan
43814;BME280;29669;55.706;37.656;2024-02-16T17:39:04;101683.72;;;-4.46;nan
43814;BME280;29669;55.706;37.656;2024-02-16T17:41:32;101671.09;;;-4.48;nan
43814;BME280;29669;55.706;37.656;2024-02-16T17:44:00;101670.25;;;-4.47;nan
43814;BME280;29669;55.706;37.656;2024-02-16T17:46:28;101667.72;;;-4.47;nan
43814;BME280;29669;55.706;37.656;2024-02-16T17:48:56;101675.28;;;-4.45;nan
43814;BME280;29669;55.706;37.656;2024-02-16T17:51:24;101676.13;;;-4.45;nan
43814;BME280;29669;55.706;37.656;2024-02-16T17:53:52;101673.66;;;-4.49;nan
43814;BME280;29669;55.706;37.656;2024-02-16T17:56:20;101666.25;;;-4.63;nan
43814;BME280;29669;55.706;37.656;2024-02-16T18:01:15;101672.16;;;-4.62;nan
43814;BME280;29669;55.706;37.656;2024-02-16T18:03:43;101677.09;;;-4.55;nan
43814;BME280;29669;55.706;37.656;2024-02-16T18:06:11;101686.47;;;-4.61;nan
43814;BME280;29669;55.706;37.656;2024-02-16T18:08:38;101692.41;;;-4.61;nan
43814;BME280;29669;55.706;37.656;2024-02-16T18:11:06;101688.13;;;-4.57;nan
43814;BME280;29669;55.706;37.656;2024-02-16T18:13:34;101691.50;;;-4.57;nan
43814;BME280;29669;55.706;37.656;2024-02-16T18:16:01;101686.47;;;-4.61;nan
43814;BME280;29669;55.706;37.656;2024-02-16T18:18:31;101685.69;;;-4.65;nan
43814;BME280;29669;55.706;37.656;2024-02-16T18:20:58;101682.31;;;-4.65;nan
43814;BME280;29669;55.706;37.656;2024-02-16T18:23:26;101677.19;;;-4.61;nan
43814;BME280;29669;55.706;37.656;2024-02-16T18:25:56;101669.66;;;-4.64;nan
43814;BME280;29669;55.706;37.656;2024-02-16T18:28:26;101673.06;;;-4.66;nan
43814;BME280;29669;55.706;37.656;2024-02-16T18:31:00;101667.94;;;-4.63;nan
43814;BME280;29669;55.706;37.656;2024-02-16T18:33:28;101663.69;;;-4.61;nan
43814;BME280;29669;55.706;37.656;2024-02-16T18:36:16;101665.41;;;-4.62;nan
43814;BME280;29669;55.706;37.656;2024-02-16T18:39:02;101664.59;;;-4.64;nan
43814;BME280;29669;55.706;37.656;2024-02-16T18:41:30;101670.47;;;-4.63;nan
43814;BME280;29669;55.706;37.656;2024-02-16T18:43:58;101665.41;;;-4.63;nan
43814;BME280;29669;55.706;37.656;2024-02-16T18:46:25;101662.88;;;-4.65;nan
43814;BME280;29669;55.706;37.656;2024-02-16T18:48:53;101654.44;;;-4.64;nan
43814;BME280;29669;55.706;37.656;2024-02-16T18:51:21;101661.19;;;-4.63;nan
43814;BME280;29669;55.706;37.656;2024-02-16T18:53:48;101658.63;;;-4.63;nan
43814;BME280;29669;55.706;37.656;2024-02-16T18:56:16;101663.75;;;-4.66;nan
43814;BME280;29669;55.706;37.656;2024-02-16T18:58:45;101652.84;;;-4.71;nan
43814;BME280;29669;55.706;37.656;2024-02-16T19:01:13;101656.25;;;-4.72;nan
43814;BME280;29669;55.706;37.656;2024-02-16T19:03:45;101653.69;;;-4.70;nan
43814;BME280;29669;55.706;37.656;2024-02-16T19:06:13;101659.56;;;-4.68;nan
43814;BME280;29669;55.706;37.656;2024-02-16T19:08:40;101654.50;;;-4.68;nan
43814;BME280;29669;55.706;37.656;2024-02-16T19:11:08;101654.44;;;-4.64;nan
43814;BME280;29669;55.706;37.656;2024-02-16T19:13:36;101657.81;;;-4.65;nan
43814;BME280;29669;55.706;37.656;2024-02-16T19:16:05;101656.97;;;-4.64;nan
43814;BME280;29669;55.706;37.656;2024-02-16T19:18:33;101662.84;;;-4.63;nan
43814;BME280;29669;55.706;37.656;2024-02-16T19:21:02;101656.09;;;-4.63;nan
43814;BME280;29669;55.706;37.656;2024-02-16T19:23:31;101654.44;;;-4.64;nan
43814;BME280;29669;55.706;37.656;2024-02-16T19:25:59;101652.75;;;-4.65;nan
43814;BME280;29669;55.706;37.656;2024-02-16T19:28:26;101647.69;;;-4.65;nan
43814;BME280;29669;55.706;37.656;2024-02-16T19:30:54;101651.88;;;-4.62;nan
43814;BME280;29669;55.706;37.656;2024-02-16T19:33:22;101645.13;;;-4.62;nan
43814;BME280;29669;55.706;37.656;2024-02-16T19:35:49;101648.47;;;-4.61;nan
43814;BME280;29669;55.706;37.656;2024-02-16T19:38:19;101645.97;;;-4.63;nan
43814;BME280;29669;55.706;37.656;2024-02-16T19:40:47;101649.28;;;-4.59;nan
43814;BME280;29669;55.706;37.656;2024-02-16T19:43:14;101644.25;;;-4.61;nan
43814;BME280;29669;55.706;37.656;2024-02-16T19:45:46;101639.16;;;-4.59;nan
43814;BME280;29669;55.706;37.656;2024-02-16T19:48:14;101643.41;;;-4.61;nan
43814;BME280;29669;55.706;37.656;2024-02-16T19:50:41;101645.16;;;-4.65;nan
43814;BME280;29669;55.706;37.656;2024-02-16T19:53:10;101631.75;;;-4.73;nan